createdAt,value
2019-04-27T00:00:00.071Z,0.00
2019-04-27T00:00:58.571Z,0.00
2019-04-27T00:01:58.554Z,0.00
2019-04-27T00:03:02.048Z,0.00
2019-04-27T00:03:59.532Z,0.00
2019-04-27T00:04:58.528Z,0.00
2019-04-27T00:05:58.528Z,0.00
2019-04-27T00:06:58.506Z,0.00
2019-04-27T00:07:59.466Z,0.00
2019-04-27T00:08:58.489Z,0.00
2019-04-27T00:09:58.473Z,0.00
2019-04-27T00:10:59.816Z,0.00
2019-04-27T00:11:59.453Z,0.00
2019-04-27T00:13:02.179Z,0.00
2019-04-27T00:13:59.431Z,0.00
2019-04-27T00:14:58.422Z,0.00
2019-04-27T00:15:58.418Z,0.00
2019-04-27T00:16:58.400Z,0.00
2019-04-27T00:17:58.693Z,0.00
2019-04-27T00:18:58.377Z,0.00
2019-04-27T00:19:58.374Z,0.00
2019-04-27T00:20:58.384Z,0.00
2019-04-27T00:21:58.351Z,0.00
2019-04-27T00:22:58.333Z,0.00
2019-04-27T00:23:58.328Z,0.00
2019-04-27T00:24:58.315Z,0.00
2019-04-27T00:25:58.302Z,0.00
2019-04-27T00:26:58.323Z,0.00
2019-04-27T00:27:58.284Z,0.00
2019-04-27T00:28:58.272Z,0.00
2019-04-27T00:29:58.263Z,4.00
2019-04-27T00:30:58.256Z,0.00
2019-04-27T00:31:58.293Z,0.00
2019-04-27T00:32:58.230Z,0.00
2019-04-27T00:33:58.217Z,0.00
2019-04-27T00:34:58.218Z,0.00
2019-04-27T00:35:58.213Z,0.00
2019-04-27T00:36:58.193Z,0.00
2019-04-27T00:37:58.198Z,0.00
2019-04-27T00:38:58.174Z,0.00
2019-04-27T00:39:58.161Z,0.00
2019-04-27T00:40:58.150Z,0.00
2019-04-27T00:41:58.139Z,0.00
2019-04-27T00:42:58.139Z,0.00
2019-04-27T00:43:58.123Z,0.00
2019-04-27T00:44:58.102Z,0.00
2019-04-27T00:45:58.093Z,0.00
2019-04-27T00:46:58.086Z,0.00
2019-04-27T00:47:59.794Z,0.00
2019-04-27T00:48:58.060Z,0.00
2019-04-27T00:49:58.057Z,0.00
2019-04-27T00:50:58.041Z,0.00
2019-04-27T00:51:58.035Z,0.00
2019-04-27T00:52:58.036Z,0.00
2019-04-27T00:53:58.008Z,0.00
2019-04-27T00:54:58.002Z,0.00
2019-04-27T00:55:57.988Z,0.00
2019-04-27T00:56:57.983Z,0.00
2019-04-27T00:57:58.979Z,0.00
2019-04-27T00:58:57.968Z,0.00
2019-04-27T00:59:57.957Z,0.00
2019-04-27T01:00:57.937Z,0.00
2019-04-27T01:01:57.927Z,0.00
2019-04-27T01:02:57.947Z,0.00
2019-04-27T01:03:57.907Z,0.00
2019-04-27T01:04:57.896Z,0.00
2019-04-27T01:05:57.886Z,0.00
2019-04-27T01:06:57.879Z,0.00
2019-04-27T01:07:57.868Z,0.00
2019-04-27T01:08:57.872Z,0.00
2019-04-27T01:09:57.850Z,0.00
2019-04-27T01:10:57.835Z,0.00
2019-04-27T01:11:57.823Z,0.00
2019-04-27T01:12:57.811Z,0.00
2019-04-27T01:13:57.815Z,0.00
2019-04-27T01:14:57.792Z,0.00
2019-04-27T01:15:57.795Z,0.00
2019-04-27T01:16:59.517Z,0.00
2019-04-27T01:18:11.701Z,0.00
2019-04-27T01:18:59.013Z,0.00
2019-04-27T01:19:59.470Z,0.00
2019-04-27T01:20:59.091Z,0.00
2019-04-27T01:21:58.575Z,0.00
2019-04-27T01:22:59.331Z,0.00
2019-04-27T01:23:58.911Z,0.00
2019-04-27T01:24:59.356Z,0.00
2019-04-27T01:25:59.388Z,0.00
2019-04-27T01:26:58.332Z,0.00
2019-04-27T01:27:59.543Z,0.00
2019-04-27T01:28:59.180Z,0.00
2019-04-27T01:29:58.839Z,0.00
2019-04-27T01:30:58.888Z,0.00
2019-04-27T01:31:58.900Z,0.00
2019-04-27T01:32:57.924Z,0.00
2019-04-27T01:33:58.997Z,0.00
2019-04-27T01:34:59.092Z,0.00
2019-04-27T01:35:58.896Z,0.00
2019-04-27T01:36:59.397Z,0.00
2019-04-27T01:37:58.930Z,0.00
2019-04-27T01:38:59.409Z,0.00
2019-04-27T01:39:59.046Z,0.00
2019-04-27T01:40:58.320Z,0.00
2019-04-27T01:41:59.066Z,0.00
2019-04-27T01:42:58.826Z,0.00
2019-04-27T01:43:59.128Z,0.00
2019-04-27T01:44:57.488Z,0.00
2019-04-27T01:45:58.701Z,0.00
2019-04-27T01:46:57.453Z,0.00
2019-04-27T01:47:57.446Z,0.00
2019-04-27T01:48:59.001Z,0.00
2019-04-27T01:49:58.509Z,0.00
2019-04-27T01:50:59.251Z,0.00
2019-04-27T01:51:59.306Z,0.00
2019-04-27T01:52:58.764Z,0.00
2019-04-27T01:53:59.252Z,0.00
2019-04-27T01:54:57.370Z,0.00
2019-04-27T01:55:59.191Z,0.00
2019-04-27T01:56:57.351Z,0.00
2019-04-27T01:57:58.511Z,0.00
2019-04-27T01:58:57.328Z,0.00
2019-04-27T01:59:58.892Z,0.00
2019-04-27T02:00:57.324Z,0.00
2019-04-27T02:01:58.792Z,0.00
2019-04-27T02:02:57.286Z,0.00
2019-04-27T02:03:58.961Z,0.00
2019-04-27T02:04:57.270Z,0.00
2019-04-27T02:05:57.273Z,0.00
2019-04-27T02:06:58.898Z,0.00
2019-04-27T02:07:57.234Z,0.00
2019-04-27T02:08:57.228Z,0.00
2019-04-27T02:09:58.793Z,0.00
2019-04-27T02:10:57.231Z,0.00
2019-04-27T02:11:59.060Z,0.00
2019-04-27T02:12:58.692Z,0.00
2019-04-27T02:13:57.170Z,0.00
2019-04-27T02:14:58.766Z,0.00
2019-04-27T02:15:58.752Z,0.00
2019-04-27T02:16:57.152Z,0.00
2019-04-27T02:17:59.481Z,0.00
2019-04-27T02:18:58.597Z,0.00
2019-04-27T02:19:57.112Z,0.00
2019-04-27T02:20:59.032Z,0.00
2019-04-27T02:21:57.098Z,0.00
2019-04-27T02:22:58.738Z,0.00
2019-04-27T02:23:57.066Z,0.00
2019-04-27T02:24:57.052Z,0.00
2019-04-27T02:25:58.588Z,0.00
2019-04-27T02:26:58.617Z,0.00
2019-04-27T02:27:57.019Z,0.00
2019-04-27T02:28:58.510Z,0.00
2019-04-27T02:29:57.012Z,0.00
2019-04-27T02:30:56.993Z,0.00
2019-04-27T02:31:56.999Z,0.00
2019-04-27T02:32:59.243Z,0.00
2019-04-27T02:33:59.418Z,0.00
2019-04-27T02:34:56.950Z,0.00
2019-04-27T02:35:56.945Z,0.00
2019-04-27T02:36:59.474Z,0.00
2019-04-27T02:38:00.250Z,0.00
2019-04-27T02:38:59.455Z,0.00
2019-04-27T02:39:56.903Z,0.00
2019-04-27T02:40:59.559Z,0.00
2019-04-27T02:41:56.873Z,0.00
2019-04-27T02:42:56.874Z,0.00
2019-04-27T02:43:56.857Z,0.00
2019-04-27T02:44:59.612Z,0.00
2019-04-27T02:45:56.835Z,0.00
2019-04-27T02:46:56.826Z,0.00
2019-04-27T02:47:59.285Z,0.00
2019-04-27T02:49:03.131Z,0.00
2019-04-27T02:49:57.786Z,0.00
2019-04-27T02:50:56.780Z,0.00
2019-04-27T02:51:56.770Z,0.00
2019-04-27T02:52:56.771Z,0.00
2019-04-27T02:53:56.757Z,0.00
2019-04-27T02:54:59.103Z,0.00
2019-04-27T02:55:56.726Z,0.00
2019-04-27T02:56:59.208Z,0.00
2019-04-27T02:57:56.715Z,0.00
2019-04-27T02:58:59.156Z,0.00
2019-04-27T02:59:56.684Z,0.00
2019-04-27T03:00:56.669Z,0.00
2019-04-27T03:01:56.661Z,0.00
2019-04-27T03:02:56.667Z,0.00
2019-04-27T03:03:56.642Z,0.00
2019-04-27T03:04:56.630Z,0.00
2019-04-27T03:05:56.619Z,0.00
2019-04-27T03:06:56.614Z,0.00
2019-04-27T03:07:56.628Z,0.00
2019-04-27T03:08:56.588Z,0.00
2019-04-27T03:09:56.583Z,0.00
2019-04-27T03:10:56.562Z,0.00
2019-04-27T03:11:56.556Z,0.00
2019-04-27T03:12:56.546Z,0.00
2019-04-27T03:13:56.554Z,0.00
2019-04-27T03:14:56.522Z,0.00
2019-04-27T03:15:56.517Z,0.00
2019-04-27T03:16:56.525Z,0.00
2019-04-27T03:17:56.489Z,0.00
2019-04-27T03:19:10.026Z,0.00
2019-04-27T03:19:59.534Z,0.00
2019-04-27T03:20:56.459Z,0.00
2019-04-27T03:21:56.445Z,0.00
2019-04-27T03:22:56.441Z,0.00
2019-04-27T03:23:56.447Z,0.00
2019-04-27T03:24:56.434Z,0.00
2019-04-27T03:25:56.437Z,0.00
2019-04-27T03:26:56.392Z,0.00
2019-04-27T03:27:56.384Z,0.00
2019-04-27T03:28:56.390Z,0.00
2019-04-27T03:29:56.357Z,0.00
2019-04-27T03:30:56.353Z,0.00
2019-04-27T03:31:56.342Z,0.00
2019-04-27T03:32:57.527Z,0.00
2019-04-27T03:34:03.388Z,0.00
2019-04-27T03:35:02.124Z,0.00
2019-04-27T03:35:57.296Z,0.00
2019-04-27T03:36:56.285Z,0.00
2019-04-27T03:37:56.337Z,0.00
2019-04-27T03:38:56.285Z,0.00
2019-04-27T03:39:56.253Z,0.00
2019-04-27T03:40:56.246Z,0.00
2019-04-27T03:41:56.239Z,0.00
2019-04-27T03:42:56.230Z,0.00
2019-04-27T03:43:56.219Z,0.00
2019-04-27T03:44:56.213Z,0.00
2019-04-27T03:45:56.185Z,0.00
2019-04-27T03:46:56.179Z,0.00
2019-04-27T03:47:56.175Z,0.00
2019-04-27T03:48:56.157Z,0.00
2019-04-27T03:49:56.162Z,0.00
2019-04-27T03:50:56.130Z,0.00
2019-04-27T03:51:56.123Z,0.00
2019-04-27T03:52:56.109Z,0.00
2019-04-27T03:53:57.347Z,0.00
2019-04-27T03:54:56.109Z,0.00
2019-04-27T03:55:56.080Z,0.00
2019-04-27T03:56:56.077Z,0.00
2019-04-27T03:57:56.064Z,0.00
2019-04-27T03:58:56.051Z,0.00
2019-04-27T03:59:56.064Z,0.00
2019-04-27T04:00:56.045Z,0.00
2019-04-27T04:01:56.015Z,0.00
2019-04-27T04:02:56.008Z,0.00
2019-04-27T04:03:56.011Z,0.00
2019-04-27T04:04:55.982Z,0.00
2019-04-27T04:05:55.983Z,0.00
2019-04-27T04:06:55.964Z,0.00
2019-04-27T04:07:55.949Z,0.00
2019-04-27T04:08:55.941Z,0.00
2019-04-27T04:09:55.934Z,0.00
2019-04-27T04:10:55.937Z,0.00
2019-04-27T04:11:55.907Z,0.00
2019-04-27T04:12:56.679Z,0.00
2019-04-27T04:13:55.902Z,0.00
2019-04-27T04:14:55.879Z,0.00
2019-04-27T04:15:55.877Z,0.00
2019-04-27T04:17:01.731Z,0.00
2019-04-27T04:17:59.307Z,0.00
2019-04-27T04:18:55.839Z,0.00
2019-04-27T04:19:58.503Z,0.00
2019-04-27T04:20:56.824Z,0.00
2019-04-27T04:21:55.802Z,0.00
2019-04-27T04:22:55.788Z,0.00
2019-04-27T04:23:55.786Z,0.00
2019-04-27T04:24:55.769Z,0.00
2019-04-27T04:25:55.796Z,0.00
2019-04-27T04:26:55.743Z,0.00
2019-04-27T04:27:55.741Z,0.00
2019-04-27T04:28:55.729Z,0.00
2019-04-27T04:29:55.715Z,0.00
2019-04-27T04:30:55.708Z,0.00
2019-04-27T04:31:55.707Z,0.00
2019-04-27T04:32:55.683Z,0.00
2019-04-27T04:33:55.670Z,0.00
2019-04-27T04:34:55.662Z,0.00
2019-04-27T04:35:55.652Z,0.00
2019-04-27T04:36:55.651Z,0.00
2019-04-27T04:37:55.628Z,0.00
2019-04-27T04:38:55.620Z,0.00
2019-04-27T04:39:55.610Z,0.00
2019-04-27T04:40:55.599Z,0.00
2019-04-27T04:41:55.603Z,0.00
2019-04-27T04:42:55.579Z,0.00
2019-04-27T04:43:55.561Z,0.00
2019-04-27T04:44:55.550Z,0.00
2019-04-27T04:45:55.538Z,0.00
2019-04-27T04:46:55.560Z,0.00
2019-04-27T04:47:55.518Z,0.00
2019-04-27T04:48:55.510Z,0.00
2019-04-27T04:50:10.325Z,0.00
2019-04-27T04:50:56.487Z,0.00
2019-04-27T04:51:55.486Z,0.00
2019-04-27T04:52:55.512Z,0.00
2019-04-27T04:53:55.454Z,0.00
2019-04-27T04:54:55.441Z,0.00
2019-04-27T04:55:55.438Z,0.00
2019-04-27T04:56:55.425Z,0.00
2019-04-27T04:57:55.422Z,0.00
2019-04-27T04:58:55.398Z,0.00
2019-04-27T04:59:55.387Z,0.00
2019-04-27T05:00:55.377Z,4.00
2019-04-27T05:01:55.367Z,0.00
2019-04-27T05:02:55.371Z,0.00
2019-04-27T05:03:55.347Z,0.00
2019-04-27T05:04:55.339Z,0.00
2019-04-27T05:05:55.322Z,0.00
2019-04-27T05:06:55.315Z,0.00
2019-04-27T05:07:55.312Z,4.00
2019-04-27T05:08:55.298Z,4.00
2019-04-27T05:09:55.279Z,4.00
2019-04-27T05:10:55.286Z,8.00
2019-04-27T05:11:55.265Z,8.00
2019-04-27T05:12:55.270Z,8.00
2019-04-27T05:13:55.241Z,8.00
2019-04-27T05:14:55.224Z,8.00
2019-04-27T05:15:55.213Z,4.00
2019-04-27T05:16:55.197Z,8.00
2019-04-27T05:17:55.192Z,8.00
2019-04-27T05:18:55.195Z,8.00
2019-04-27T05:19:55.176Z,8.00
2019-04-27T05:20:55.156Z,8.00
2019-04-27T05:21:55.142Z,8.00
2019-04-27T05:22:55.135Z,8.00
2019-04-27T05:23:55.139Z,8.00
2019-04-27T05:24:55.111Z,448.00
2019-04-27T05:25:55.103Z,520.00
2019-04-27T05:26:55.095Z,596.00
2019-04-27T05:27:55.085Z,652.00
2019-04-27T05:28:55.085Z,664.00
2019-04-27T05:29:55.057Z,628.00
2019-04-27T05:30:55.052Z,584.00
2019-04-27T05:31:55.050Z,520.00
2019-04-27T05:32:55.030Z,460.00
2019-04-27T05:33:55.032Z,412.00
2019-04-27T05:34:55.012Z,400.00
2019-04-27T05:35:55.034Z,424.00
2019-04-27T05:36:54.986Z,436.00
2019-04-27T05:37:54.981Z,432.00
2019-04-27T05:38:54.985Z,412.00
2019-04-27T05:39:54.958Z,392.00
2019-04-27T05:40:54.945Z,380.00
2019-04-27T05:41:54.932Z,376.00
2019-04-27T05:42:56.180Z,384.00
2019-04-27T05:43:54.942Z,392.00
2019-04-27T05:44:54.903Z,400.00
2019-04-27T05:45:59.438Z,428.00
2019-04-27T05:46:55.885Z,460.00
2019-04-27T05:47:54.871Z,476.00
2019-04-27T05:48:54.877Z,464.00
2019-04-27T05:49:54.850Z,440.00
2019-04-27T05:50:58.885Z,428.00
2019-04-27T05:51:55.831Z,428.00
2019-04-27T05:52:54.848Z,436.00
2019-04-27T05:53:54.829Z,452.00
2019-04-27T05:54:54.797Z,472.00
2019-04-27T05:55:54.791Z,504.00
2019-04-27T05:56:54.775Z,520.00
2019-04-27T05:57:54.763Z,528.00
2019-04-27T05:58:54.794Z,532.00
2019-04-27T05:59:54.753Z,536.00
2019-04-27T06:00:54.737Z,552.00
2019-04-27T06:01:54.721Z,540.00
2019-04-27T06:02:54.709Z,556.00
2019-04-27T06:03:54.704Z,580.00
2019-04-27T06:04:54.732Z,604.00
2019-04-27T06:05:54.693Z,652.00
2019-04-27T06:06:54.671Z,724.00
2019-04-27T06:07:54.657Z,772.00
2019-04-27T06:08:54.646Z,808.00
2019-04-27T06:09:54.661Z,836.00
2019-04-27T06:10:54.626Z,844.00
2019-04-27T06:11:54.614Z,840.00
2019-04-27T06:12:54.600Z,852.00
2019-04-27T06:13:54.590Z,832.00
2019-04-27T06:14:54.605Z,844.00
2019-04-27T06:15:54.573Z,872.00
2019-04-27T06:16:54.562Z,912.00
2019-04-27T06:17:54.545Z,924.00
2019-04-27T06:18:54.537Z,992.00
2019-04-27T06:19:54.575Z,976.00
2019-04-27T06:20:55.857Z,1040.00
2019-04-27T06:21:54.510Z,1104.00
2019-04-27T06:22:54.500Z,1120.00
2019-04-27T06:23:54.490Z,1120.00
2019-04-27T06:24:54.686Z,1108.00
2019-04-27T06:25:54.481Z,1128.00
2019-04-27T06:26:54.452Z,1156.00
2019-04-27T06:27:54.442Z,1128.00
2019-04-27T06:28:54.431Z,1120.00
2019-04-27T06:29:54.418Z,1100.00
2019-04-27T06:30:54.429Z,1144.00
2019-04-27T06:31:54.409Z,1176.00
2019-04-27T06:32:54.394Z,1168.00
2019-04-27T06:33:54.382Z,1148.00
2019-04-27T06:34:54.372Z,1176.00
2019-04-27T06:35:54.509Z,1172.00
2019-04-27T06:36:54.345Z,1176.00
2019-04-27T06:37:54.339Z,1172.00
2019-04-27T06:38:54.327Z,1140.00
2019-04-27T06:39:54.312Z,1180.00
2019-04-27T06:40:54.305Z,1168.00
2019-04-27T06:41:54.445Z,1164.00
2019-04-27T06:42:54.283Z,1160.00
2019-04-27T06:43:54.274Z,1172.00
2019-04-27T06:44:54.395Z,1192.00
2019-04-27T06:45:54.248Z,1180.00
2019-04-27T06:46:54.249Z,1148.00
2019-04-27T06:47:54.236Z,1124.00
2019-04-27T06:48:54.217Z,1084.00
2019-04-27T06:49:54.205Z,992.00
2019-04-27T06:51:02.592Z,896.00
2019-04-27T06:51:55.265Z,864.00
2019-04-27T06:52:54.178Z,800.00
2019-04-27T06:53:54.162Z,784.00
2019-04-27T06:54:54.332Z,804.00
2019-04-27T06:55:54.167Z,888.00
2019-04-27T06:56:54.155Z,972.00
2019-04-27T06:57:54.141Z,1040.00
2019-04-27T06:58:54.308Z,1112.00
2019-04-27T06:59:54.148Z,1096.00
2019-04-27T07:00:54.142Z,1040.00
2019-04-27T07:01:54.118Z,1052.00
2019-04-27T07:02:55.431Z,1128.00
2019-04-27T07:03:54.131Z,1092.00
2019-04-27T07:04:54.046Z,1132.00
2019-04-27T07:05:54.095Z,1180.00
2019-04-27T07:06:56.205Z,1188.00
2019-04-27T07:07:54.136Z,1188.00
2019-04-27T07:08:55.337Z,1188.00
2019-04-27T07:09:54.009Z,1164.00
2019-04-27T07:10:54.061Z,1160.00
2019-04-27T07:11:53.971Z,1104.00
2019-04-27T07:12:54.001Z,1092.00
2019-04-27T07:13:53.971Z,1040.00
2019-04-27T07:14:55.106Z,1000.00
2019-04-27T07:15:53.924Z,992.00
2019-04-27T07:16:53.914Z,980.00
2019-04-27T07:17:54.077Z,980.00
2019-04-27T07:18:53.953Z,980.00
2019-04-27T07:19:53.883Z,1004.00
2019-04-27T07:20:53.877Z,952.00
2019-04-27T07:21:53.954Z,920.00
2019-04-27T07:22:53.863Z,892.00
2019-04-27T07:23:53.858Z,892.00
2019-04-27T07:24:53.832Z,884.00
2019-04-27T07:25:53.824Z,908.00
2019-04-27T07:26:53.919Z,916.00
2019-04-27T07:27:53.953Z,908.00
2019-04-27T07:28:54.010Z,904.00
2019-04-27T07:29:53.888Z,908.00
2019-04-27T07:30:53.913Z,908.00
2019-04-27T07:31:53.756Z,908.00
2019-04-27T07:32:53.790Z,912.00
2019-04-27T07:33:53.736Z,908.00
2019-04-27T07:34:55.281Z,916.00
2019-04-27T07:35:53.756Z,928.00
2019-04-27T07:36:53.700Z,920.00
2019-04-27T07:37:53.760Z,920.00
2019-04-27T07:38:53.682Z,912.00
2019-04-27T07:39:53.686Z,916.00
2019-04-27T07:40:53.663Z,928.00
2019-04-27T07:41:53.653Z,948.00
2019-04-27T07:42:53.644Z,972.00
2019-04-27T07:43:53.627Z,1016.00
2019-04-27T07:44:53.637Z,1064.00
2019-04-27T07:45:53.610Z,1116.00
2019-04-27T07:46:53.595Z,1156.00
2019-04-27T07:47:53.599Z,1192.00
2019-04-27T07:48:53.572Z,1212.00
2019-04-27T07:49:53.588Z,1220.00
2019-04-27T07:50:53.556Z,1228.00
2019-04-27T07:51:53.547Z,1244.00
2019-04-27T07:52:53.534Z,1280.00
2019-04-27T07:53:53.529Z,1308.00
2019-04-27T07:54:53.507Z,1368.00
2019-04-27T07:55:53.545Z,1404.00
2019-04-27T07:56:53.489Z,1460.00
2019-04-27T07:57:53.486Z,1524.00
2019-04-27T07:58:53.470Z,1592.00
2019-04-27T07:59:53.454Z,1668.00
2019-04-27T08:00:53.468Z,1716.00
2019-04-27T08:01:53.437Z,1720.00
2019-04-27T08:02:53.424Z,1712.00
2019-04-27T08:03:53.417Z,1720.00
2019-04-27T08:04:53.404Z,1704.00
2019-04-27T08:05:53.405Z,1668.00
2019-04-27T08:06:53.379Z,1636.00
2019-04-27T08:07:53.369Z,1636.00
2019-04-27T08:08:53.361Z,1612.00
2019-04-27T08:09:53.349Z,1604.00
2019-04-27T08:10:53.356Z,1580.00
2019-04-27T08:11:53.328Z,1552.00
2019-04-27T08:12:53.346Z,1556.00
2019-04-27T08:13:53.313Z,1564.00
2019-04-27T08:14:53.297Z,1620.00
2019-04-27T08:15:53.298Z,1604.00
2019-04-27T08:16:53.291Z,1604.00
2019-04-27T08:17:53.269Z,1652.00
2019-04-27T08:18:53.257Z,1724.00
2019-04-27T08:19:53.241Z,1800.00
2019-04-27T08:20:53.256Z,1788.00
2019-04-27T08:21:53.225Z,1824.00
2019-04-27T08:22:53.228Z,1820.00
2019-04-27T08:23:53.205Z,1764.00
2019-04-27T08:24:53.188Z,1876.00
2019-04-27T08:25:53.179Z,1884.00
2019-04-27T08:26:53.187Z,1904.00
2019-04-27T08:27:53.158Z,1896.00
2019-04-27T08:28:53.147Z,2004.00
2019-04-27T08:29:53.136Z,1968.00
2019-04-27T08:30:53.131Z,1888.00
2019-04-27T08:31:53.126Z,1812.00
2019-04-27T08:32:53.108Z,1744.00
2019-04-27T08:33:53.096Z,1756.00
2019-04-27T08:34:53.087Z,1752.00
2019-04-27T08:35:53.073Z,1772.00
2019-04-27T08:36:53.075Z,1800.00
2019-04-27T08:37:53.053Z,1852.00
2019-04-27T08:38:53.072Z,1916.00
2019-04-27T08:39:53.077Z,1892.00
2019-04-27T08:40:53.048Z,1892.00
2019-04-27T08:41:53.046Z,1856.00
2019-04-27T08:42:55.565Z,1828.00
2019-04-27T08:43:52.984Z,1796.00
2019-04-27T08:44:52.975Z,1824.00
2019-04-27T08:45:52.966Z,1868.00
2019-04-27T08:46:52.958Z,1844.00
2019-04-27T08:47:52.962Z,1856.00
2019-04-27T08:48:52.946Z,1876.00
2019-04-27T08:49:52.929Z,1816.00
2019-04-27T08:50:52.910Z,1828.00
2019-04-27T08:51:59.144Z,1856.00
2019-04-27T08:52:53.909Z,1812.00
2019-04-27T08:53:52.885Z,1768.00
2019-04-27T08:54:52.869Z,1720.00
2019-04-27T08:55:52.929Z,1724.00
2019-04-27T08:56:52.853Z,1784.00
2019-04-27T08:57:52.856Z,1840.00
2019-04-27T08:58:52.827Z,1828.00
2019-04-27T08:59:52.817Z,1860.00
2019-04-27T09:00:52.808Z,1916.00
2019-04-27T09:01:52.795Z,1916.00
2019-04-27T09:02:52.807Z,1956.00
2019-04-27T09:03:52.783Z,2032.00
2019-04-27T09:04:52.763Z,2192.00
2019-04-27T09:05:52.755Z,2204.00
2019-04-27T09:06:52.742Z,2228.00
2019-04-27T09:07:52.742Z,2216.00
2019-04-27T09:08:52.735Z,2156.00
2019-04-27T09:09:52.715Z,2104.00
2019-04-27T09:10:52.704Z,2008.00
2019-04-27T09:11:52.688Z,1924.00
2019-04-27T09:12:53.653Z,1852.00
2019-04-27T09:13:52.685Z,1772.00
2019-04-27T09:14:52.663Z,1720.00
2019-04-27T09:15:52.650Z,1668.00
2019-04-27T09:17:00.285Z,1644.00
2019-04-27T09:17:53.626Z,1668.00
2019-04-27T09:18:52.636Z,1704.00
2019-04-27T09:19:52.606Z,1764.00
2019-04-27T09:20:52.589Z,1876.00
2019-04-27T09:21:52.589Z,1844.00
2019-04-27T09:22:52.576Z,1872.00
2019-04-27T09:23:52.594Z,1772.00
2019-04-27T09:24:52.571Z,1788.00
2019-04-27T09:25:52.546Z,1832.00
2019-04-27T09:26:52.536Z,1888.00
2019-04-27T09:27:52.526Z,2040.00
2019-04-27T09:28:52.514Z,1944.00
2019-04-27T09:29:52.530Z,1904.00
2019-04-27T09:30:52.493Z,1900.00
2019-04-27T09:31:52.480Z,1876.00
2019-04-27T09:32:53.093Z,1856.00
2019-04-27T09:33:53.074Z,1820.00
2019-04-27T09:34:53.224Z,1860.00
2019-04-27T09:35:53.098Z,1876.00
2019-04-27T09:36:53.073Z,1964.00
2019-04-27T09:37:52.418Z,2052.00
2019-04-27T09:38:52.411Z,2144.00
2019-04-27T09:39:52.422Z,2136.00
2019-04-27T09:40:52.384Z,2188.00
2019-04-27T09:41:52.380Z,2168.00
2019-04-27T09:42:52.365Z,2180.00
2019-04-27T09:43:52.358Z,2180.00
2019-04-27T09:44:52.348Z,2164.00
2019-04-27T09:45:52.344Z,2216.00
2019-04-27T09:46:52.320Z,2272.00
2019-04-27T09:47:52.313Z,2380.00
2019-04-27T09:48:52.297Z,2424.00
2019-04-27T09:49:52.282Z,2492.00
2019-04-27T09:50:52.330Z,2440.00
2019-04-27T09:51:52.273Z,2380.00
2019-04-27T09:52:52.265Z,2332.00
2019-04-27T09:53:52.270Z,2332.00
2019-04-27T09:54:52.238Z,2048.00
2019-04-27T09:55:52.255Z,1936.00
2019-04-27T09:56:52.212Z,1984.00
2019-04-27T09:57:52.249Z,2228.00
2019-04-27T09:58:52.196Z,2340.00
2019-04-27T09:59:52.184Z,2296.00
2019-04-27T10:00:52.171Z,2376.00
2019-04-27T10:01:52.187Z,2248.00
2019-04-27T10:02:52.153Z,2240.00
2019-04-27T10:03:52.141Z,2220.00
2019-04-27T10:04:52.133Z,2252.00
2019-04-27T10:05:52.137Z,2128.00
2019-04-27T10:06:52.146Z,1752.00
2019-04-27T10:07:52.100Z,1900.00
2019-04-27T10:08:52.094Z,2328.00
2019-04-27T10:09:52.088Z,2424.00
2019-04-27T10:10:52.072Z,2396.00
2019-04-27T10:11:52.071Z,2448.00
2019-04-27T10:12:52.055Z,2424.00
2019-04-27T10:13:52.033Z,2428.00
2019-04-27T10:14:52.036Z,2484.00
2019-04-27T10:15:52.014Z,2372.00
2019-04-27T10:16:52.101Z,2620.00
2019-04-27T10:17:51.991Z,2708.00
2019-04-27T10:18:51.980Z,2708.00
2019-04-27T10:19:51.967Z,2772.00
2019-04-27T10:20:59.836Z,2756.00
2019-04-27T10:21:52.970Z,2768.00
2019-04-27T10:22:52.079Z,2684.00
2019-04-27T10:23:51.927Z,2624.00
2019-04-27T10:24:51.925Z,2536.00
2019-04-27T10:25:51.923Z,2512.00
2019-04-27T10:26:51.897Z,2472.00
2019-04-27T10:27:51.906Z,2492.00
2019-04-27T10:28:51.892Z,2496.00
2019-04-27T10:29:51.865Z,2516.00
2019-04-27T10:30:51.851Z,2520.00
2019-04-27T10:31:51.840Z,2584.00
2019-04-27T10:32:51.858Z,2552.00
2019-04-27T10:33:51.823Z,2592.00
2019-04-27T10:34:51.811Z,2628.00
2019-04-27T10:35:51.799Z,2564.00
2019-04-27T10:36:51.791Z,2544.00
2019-04-27T10:37:51.797Z,2664.00
2019-04-27T10:38:51.804Z,2604.00
2019-04-27T10:39:51.765Z,2484.00
2019-04-27T10:40:51.749Z,2432.00
2019-04-27T10:41:51.735Z,2544.00
2019-04-27T10:42:51.752Z,2456.00
2019-04-27T10:43:51.774Z,2512.00
2019-04-27T10:44:51.713Z,2556.00
2019-04-27T10:45:51.700Z,2628.00
2019-04-27T10:46:51.693Z,2688.00
2019-04-27T10:47:51.782Z,2712.00
2019-04-27T10:48:51.666Z,2812.00
2019-04-27T10:49:51.656Z,2768.00
2019-04-27T10:50:51.645Z,2728.00
2019-04-27T10:51:51.634Z,2636.00
2019-04-27T10:52:53.555Z,2552.00
2019-04-27T10:53:51.623Z,2516.00
2019-04-27T10:54:51.621Z,2472.00
2019-04-27T10:55:51.623Z,2556.00
2019-04-27T10:56:51.621Z,2708.00
2019-04-27T10:57:51.610Z,2776.00
2019-04-27T10:58:51.567Z,2868.00
2019-04-27T10:59:51.554Z,2836.00
2019-04-27T11:00:51.550Z,2920.00
2019-04-27T11:01:51.576Z,2856.00
2019-04-27T11:02:51.565Z,2892.00
2019-04-27T11:03:51.516Z,2860.00
2019-04-27T11:04:51.497Z,2724.00
2019-04-27T11:05:51.500Z,2532.00
2019-04-27T11:06:51.483Z,2544.00
2019-04-27T11:07:51.466Z,2532.00
2019-04-27T11:08:51.492Z,2560.00
2019-04-27T11:09:51.444Z,2552.00
2019-04-27T11:10:51.430Z,2564.00
2019-04-27T11:11:51.460Z,2560.00
2019-04-27T11:12:51.416Z,2496.00
2019-04-27T11:13:51.455Z,2392.00
2019-04-27T11:14:51.422Z,2284.00
2019-04-27T11:15:51.379Z,2220.00
2019-04-27T11:16:51.377Z,2244.00
2019-04-27T11:17:51.361Z,2292.00
2019-04-27T11:18:51.381Z,2360.00
2019-04-27T11:19:51.342Z,2364.00
2019-04-27T11:20:51.329Z,2384.00
2019-04-27T11:21:51.322Z,2436.00
2019-04-27T11:22:51.316Z,2512.00
2019-04-27T11:23:51.293Z,2616.00
2019-04-27T11:24:51.296Z,2700.00
2019-04-27T11:25:51.280Z,2432.00
2019-04-27T11:26:51.290Z,2096.00
2019-04-27T11:27:51.251Z,1728.00
2019-04-27T11:28:51.243Z,1608.00
2019-04-27T11:29:51.258Z,1572.00
2019-04-27T11:30:51.238Z,1672.00
2019-04-27T11:31:51.215Z,1544.00
2019-04-27T11:32:51.199Z,1564.00
2019-04-27T11:33:51.186Z,1640.00
2019-04-27T11:34:51.488Z,1672.00
2019-04-27T11:35:51.298Z,1796.00
2019-04-27T11:36:51.277Z,2008.00
2019-04-27T11:37:51.147Z,2308.00
2019-04-27T11:38:51.139Z,2436.00
2019-04-27T11:39:51.169Z,2520.00
2019-04-27T11:40:51.118Z,2308.00
2019-04-27T11:41:51.123Z,1912.00
2019-04-27T11:42:51.095Z,1688.00
2019-04-27T11:43:51.112Z,1596.00
2019-04-27T11:44:51.074Z,1456.00
2019-04-27T11:45:51.074Z,1336.00
2019-04-27T11:46:51.057Z,1352.00
2019-04-27T11:47:51.047Z,1440.00
2019-04-27T11:48:51.033Z,1568.00
2019-04-27T11:49:51.019Z,1616.00
2019-04-27T11:50:51.067Z,1684.00
2019-04-27T11:51:51.002Z,1800.00
2019-04-27T11:52:51.005Z,2140.00
2019-04-27T11:53:50.978Z,2336.00
2019-04-27T11:54:50.971Z,2532.00
2019-04-27T11:55:50.956Z,2484.00
2019-04-27T11:56:50.978Z,2448.00
2019-04-27T11:57:50.955Z,2320.00
2019-04-27T11:58:50.929Z,2168.00
2019-04-27T11:59:50.933Z,2268.00
2019-04-27T12:00:50.906Z,2548.00
2019-04-27T12:01:50.922Z,3000.00
2019-04-27T12:02:50.886Z,2708.00
2019-04-27T12:03:50.887Z,2328.00
2019-04-27T12:04:50.872Z,1808.00
2019-04-27T12:05:50.856Z,1724.00
2019-04-27T12:06:50.911Z,1760.00
2019-04-27T12:07:50.833Z,1832.00
2019-04-27T12:08:50.817Z,1896.00
2019-04-27T12:09:50.812Z,2016.00
2019-04-27T12:10:50.838Z,2172.00
2019-04-27T12:11:50.804Z,2352.00
2019-04-27T12:12:50.779Z,2440.00
2019-04-27T12:13:50.766Z,2492.00
2019-04-27T12:14:50.824Z,2624.00
2019-04-27T12:15:50.776Z,2892.00
2019-04-27T12:16:50.803Z,2992.00
2019-04-27T12:17:50.740Z,2940.00
2019-04-27T12:18:50.731Z,2888.00
2019-04-27T12:19:50.719Z,2436.00
2019-04-27T12:20:50.755Z,1912.00
2019-04-27T12:21:50.785Z,1944.00
2019-04-27T12:22:50.756Z,2168.00
2019-04-27T12:23:50.665Z,2332.00
2019-04-27T12:24:50.645Z,2428.00
2019-04-27T12:25:50.695Z,2536.00
2019-04-27T12:26:50.634Z,2304.00
2019-04-27T12:27:50.679Z,2120.00
2019-04-27T12:28:50.610Z,1908.00
2019-04-27T12:29:50.603Z,1800.00
2019-04-27T12:30:50.602Z,1876.00
2019-04-27T12:31:50.602Z,2040.00
2019-04-27T12:32:50.577Z,2128.00
2019-04-27T12:33:50.562Z,2132.00
2019-04-27T12:34:50.554Z,2112.00
2019-04-27T12:35:50.534Z,2092.00
2019-04-27T12:36:53.138Z,2112.00
2019-04-27T12:37:50.523Z,2076.00